Wakefield, New Hampshire
Current Conditions -  °F | °C
As of 4:15 PM on Tuesday 21 Oct 2014 (Local Time) from KSFM Reporting Station
Overcast Overcast  
Wind Chill: 52°   Ceiling: 500
Heat Index: 52°   Visibility: 8mi
Dew Point: 46°   Wind: 7mph
Humidity: 82%   Direction: 360°N
Pressure: 29.98"   Gusts: NA
Location:  43.5632°N, 71.0133°W
Report Text: KSFM 212015Z AUTO 36006KT 8SM OVC005 11/08 A2998 RMK AO1
Loading
Personal Weather Stations






























Interactive Weather Map
Tropical Storm Tracking
New forecast layout! Learn more

10-Day Weather Forecast

Advertisements
Track Severe Weather on mobile